createdAt,value
2017-08-20T00:00:10.278Z,16.1
2017-08-20T00:05:03.044Z,16.1
2017-08-20T00:10:05.834Z,16.1
2017-08-20T00:15:05.131Z,16
2017-08-20T00:20:05.533Z,16
2017-08-20T00:25:10.906Z,15.9
2017-08-20T00:30:02.662Z,15.9
2017-08-20T00:35:02.423Z,15.9
2017-08-20T00:40:05.203Z,15.8
2017-08-20T00:45:05.502Z,15.8
2017-08-20T00:50:05.834Z,15.7
2017-08-20T00:55:10.207Z,15.6
2017-08-20T01:00:02.953Z,15.7
2017-08-20T01:05:05.282Z,15.6
2017-08-20T01:10:05.081Z,15.6
2017-08-20T01:15:15.524Z,15.5
2017-08-20T01:20:04.877Z,15.5
2017-08-20T01:25:07.678Z,15.4
2017-08-20T01:30:07.507Z,15.4
2017-08-20T01:35:18.462Z,15.3
2017-08-20T01:40:15.369Z,15.2
2017-08-20T01:45:03.112Z,15.2
2017-08-20T01:50:02.913Z,15.2
2017-08-20T01:55:05.239Z,15
2017-08-20T02:00:10.620Z,14.9
2017-08-20T02:05:07.452Z,14.8
2017-08-20T02:10:05.258Z,14.8
2017-08-20T02:15:08.107Z,14.8
2017-08-20T02:20:05.482Z,14.8
2017-08-20T02:25:03.244Z,14.8
2017-08-20T02:30:03.035Z,14.8
2017-08-20T02:35:02.808Z,14.7
2017-08-20T02:40:03.094Z,14.7
2017-08-20T02:45:07.941Z,14.5
2017-08-20T02:50:02.763Z,14.5
2017-08-20T02:55:07.590Z,14.4
2017-08-20T03:00:08.411Z,14.3
2017-08-20T03:05:05.745Z,14.2
2017-08-20T03:10:04.942Z,14.2
2017-08-20T03:15:10.298Z,14
2017-08-20T03:20:03.156Z,14
2017-08-20T03:25:05.464Z,13.9
2017-08-20T03:30:08.313Z,13.8
2017-08-20T03:35:03.096Z,13.8
2017-08-20T03:40:08.381Z,13.7
2017-08-20T03:45:03.172Z,13.7
2017-08-20T03:50:05.492Z,13.6
2017-08-20T03:55:03.254Z,13.6
2017-08-20T04:00:18.210Z,13.5
2017-08-20T04:05:08.073Z,13.5
2017-08-20T04:10:10.948Z,13.5
2017-08-20T04:15:10.317Z,13.5
2017-08-20T04:20:08.249Z,13.5
2017-08-20T04:25:05.552Z,13.5
2017-08-20T04:30:03.333Z,13.5
2017-08-20T04:35:03.185Z,13.5
2017-08-20T04:40:04.941Z,13.4
2017-08-20T04:45:07.788Z,13.4
2017-08-20T04:50:02.571Z,13.4
2017-08-20T04:55:03.351Z,13.4
2017-08-20T05:00:10.757Z,13.4
2017-08-20T05:05:15.188Z,13.3
2017-08-20T05:10:07.478Z,13.3
2017-08-20T05:15:03.292Z,13.3
2017-08-20T05:20:05.741Z,13.3
2017-08-20T05:25:17.712Z,13.2
2017-08-20T05:30:05.000Z,13.3
2017-08-20T05:35:10.392Z,13.3
2017-08-20T05:40:07.675Z,13.4
2017-08-20T05:45:04.957Z,13.5
2017-08-20T05:50:05.264Z,13.5
2017-08-20T05:55:05.564Z,13.7
2017-08-20T06:00:03.313Z,13.6
2017-08-20T06:05:05.774Z,14
2017-08-20T06:10:02.985Z,13.9
2017-08-20T06:15:05.280Z,14.3
2017-08-20T06:20:05.686Z,14.4
2017-08-20T06:25:02.473Z,14.4
2017-08-20T06:30:18.096Z,14.8
2017-08-20T06:35:10.423Z,14.9
2017-08-20T06:40:02.660Z,14.9
2017-08-20T06:45:04.971Z,15.2
2017-08-20T06:50:21.010Z,15.3
2017-08-20T06:55:02.768Z,15.4
2017-08-20T07:00:02.522Z,15.5
2017-08-20T07:05:05.808Z,15.7
2017-08-20T07:10:03.064Z,15.7
2017-08-20T07:15:05.381Z,15.9
2017-08-20T07:20:05.787Z,16.1
2017-08-20T07:25:10.454Z,16.1
2017-08-20T07:30:03.223Z,16.1
2017-08-20T07:35:05.518Z,16.3
2017-08-20T07:40:05.387Z,16.5
2017-08-20T07:45:03.183Z,16.5
2017-08-20T07:50:02.954Z,16.6
2017-08-20T07:55:05.279Z,16.8
2017-08-20T08:00:08.115Z,17
2017-08-20T08:05:08.007Z,17
2017-08-20T08:10:05.737Z,17.1
2017-08-20T08:15:04.993Z,17.1
2017-08-20T08:20:18.042Z,17.1
2017-08-20T08:25:05.371Z,17.3
2017-08-20T08:30:05.673Z,17.3
2017-08-20T08:35:02.425Z,17.3
2017-08-20T08:40:02.675Z,17.5
2017-08-20T08:45:02.474Z,17.6
2017-08-20T08:50:05.782Z,17.8
2017-08-20T08:55:15.201Z,18
2017-08-20T09:00:10.528Z,18.3
2017-08-20T09:05:05.822Z,18.5
2017-08-20T09:10:08.144Z,18.4
2017-08-20T09:15:05.540Z,18.5
2017-08-20T09:20:04.901Z,18.7
2017-08-20T09:25:05.193Z,18.8
2017-08-20T09:30:02.971Z,18.8
2017-08-20T09:35:05.269Z,18.5
2017-08-20T09:40:05.034Z,18.5
2017-08-20T09:45:02.826Z,18.5
2017-08-20T09:50:07.675Z,18.4
2017-08-20T09:55:04.993Z,18.3
2017-08-20T10:00:07.818Z,18.4
2017-08-20T10:05:05.105Z,18.5
2017-08-20T10:10:21.121Z,18.6
2017-08-20T10:15:02.926Z,18.6
2017-08-20T10:20:05.429Z,18.6
2017-08-20T10:25:18.390Z,18.6
2017-08-20T10:30:18.365Z,18.7
2017-08-20T10:35:03.114Z,18.7
2017-08-20T10:40:08.426Z,18.9
2017-08-20T10:45:03.232Z,18.9
2017-08-20T10:50:18.183Z,19.4
2017-08-20T10:55:03.148Z,19.4
2017-08-20T11:00:02.896Z,19
2017-08-20T11:05:07.702Z,19
2017-08-20T11:10:08.022Z,19.3
2017-08-20T11:15:02.786Z,19.3
2017-08-20T11:20:02.642Z,19.4
2017-08-20T11:25:04.958Z,19.7
2017-08-20T11:30:10.342Z,19.8
2017-08-20T11:35:03.109Z,19.8
2017-08-20T11:40:03.324Z,19.9
2017-08-20T11:45:05.668Z,19.8
2017-08-20T11:50:04.987Z,19.7
2017-08-20T11:55:02.817Z,19.7
2017-08-20T12:00:02.587Z,19.9
2017-08-20T12:05:05.904Z,20.3
2017-08-20T12:10:03.164Z,20.3
2017-08-20T12:15:08.006Z,20.5
2017-08-20T12:20:05.414Z,20.4
2017-08-20T12:25:10.754Z,20.6
2017-08-20T12:30:02.547Z,20.6
2017-08-20T12:35:03.344Z,20.7
2017-08-20T12:40:05.122Z,20.8
2017-08-20T12:45:10.527Z,20.7
2017-08-20T12:50:08.377Z,20.9
2017-08-20T12:55:10.773Z,21.1
2017-08-20T13:00:05.077Z,21.1
2017-08-20T13:05:05.363Z,21.3
2017-08-20T13:10:03.159Z,21.3
2017-08-20T13:15:08.002Z,22.3
2017-08-20T13:20:02.880Z,22.3
2017-08-20T13:25:02.643Z,22.4
2017-08-20T13:30:04.971Z,23.4
2017-08-20T13:35:02.757Z,23.4
2017-08-20T13:40:03.004Z,22.7
2017-08-20T13:45:05.350Z,24.1
2017-08-20T13:50:05.815Z,25.3
2017-08-20T13:55:07.661Z,25.9
2017-08-20T14:00:12.553Z,26.9
2017-08-20T14:05:08.380Z,28.4
2017-08-20T14:10:12.779Z,28.8
2017-08-20T14:15:02.605Z,28.8
2017-08-20T14:20:07.528Z,27.8
2017-08-20T14:25:03.335Z,27.8
2017-08-20T14:30:05.637Z,27.3
2017-08-20T14:35:04.957Z,26.6
2017-08-20T14:40:03.224Z,26.5
2017-08-20T14:45:03.030Z,24.6
2017-08-20T14:50:05.352Z,22.1
2017-08-20T14:55:03.284Z,22
2017-08-20T15:00:23.294Z,20.6
2017-08-20T15:05:05.618Z,21
2017-08-20T15:10:02.890Z,21
2017-08-20T15:15:05.193Z,22.3
2017-08-20T15:20:03.058Z,22.3
2017-08-20T15:25:02.823Z,22.9
2017-08-20T15:30:17.801Z,23.8
2017-08-20T15:35:05.100Z,24.2
2017-08-20T15:40:02.397Z,24.2
2017-08-20T15:45:08.241Z,23.6
2017-08-20T15:50:08.093Z,23.2
2017-08-20T15:55:05.395Z,22.7
2017-08-20T16:00:03.291Z,22.7
2017-08-20T16:05:02.682Z,22.5
2017-08-20T16:10:02.914Z,22.5
2017-08-20T16:15:02.676Z,22.5
2017-08-20T16:20:02.566Z,22.6
2017-08-20T16:25:02.390Z,22.3
2017-08-20T16:30:05.692Z,21.6
2017-08-20T16:35:10.087Z,21.3
2017-08-20T16:40:05.872Z,21
2017-08-20T16:45:07.728Z,20.7
2017-08-20T16:50:05.088Z,19.4
2017-08-20T16:55:05.390Z,18.5
2017-08-20T17:00:05.728Z,18.2
2017-08-20T17:05:05.460Z,18.1
2017-08-20T17:10:03.048Z,18.1
2017-08-20T17:15:18.327Z,17.9
2017-08-20T17:20:08.228Z,18
2017-08-20T17:25:05.530Z,18
2017-08-20T17:30:05.805Z,18
2017-08-20T17:35:07.678Z,17.9
2017-08-20T17:40:07.950Z,17.8
2017-08-20T17:45:02.741Z,17.8
2017-08-20T17:50:02.572Z,17.7
2017-08-20T17:55:04.915Z,17.4
2017-08-20T18:00:05.233Z,17.3
2017-08-20T18:05:02.977Z,17.3
2017-08-20T18:10:03.210Z,17.2
2017-08-20T18:15:05.520Z,17.1
2017-08-20T18:20:10.036Z,17
2017-08-20T18:25:02.847Z,17.1
2017-08-20T18:30:02.682Z,17
2017-08-20T18:35:04.995Z,16.9
2017-08-20T18:40:03.240Z,16.9
2017-08-20T18:45:05.535Z,16.8
2017-08-20T18:50:05.848Z,16.7
2017-08-20T18:55:02.647Z,16.7
2017-08-20T19:00:02.429Z,16.7
2017-08-20T19:05:05.765Z,16.5
2017-08-20T19:10:03.010Z,16.5
2017-08-20T19:15:02.817Z,16.5
2017-08-20T19:20:02.696Z,16.5
2017-08-20T19:25:02.594Z,16.5
2017-08-20T19:30:05.897Z,16.5
2017-08-20T19:35:02.640Z,16.5
2017-08-20T19:40:05.466Z,16.4
2017-08-20T19:45:05.764Z,16.4
2017-08-20T19:50:02.550Z,16.4
2017-08-20T19:55:08.387Z,16.4
2017-08-20T20:00:03.174Z,16.4
2017-08-20T20:05:02.961Z,16.3
2017-08-20T20:10:08.220Z,16.3
2017-08-20T20:15:08.036Z,16.2
2017-08-20T20:20:15.554Z,16.2
2017-08-20T20:25:03.312Z,16.1
2017-08-20T20:30:03.092Z,16.1
2017-08-20T20:35:15.515Z,15.8
2017-08-20T20:40:02.789Z,15.9
2017-08-20T20:45:10.406Z,15.7
2017-08-20T20:50:05.722Z,15.6
2017-08-20T20:55:05.056Z,15.6
2017-08-20T21:00:05.399Z,15.6
2017-08-20T21:05:13.315Z,15.5
2017-08-20T21:10:02.552Z,15.5
2017-08-20T21:15:05.870Z,15.5
2017-08-20T21:20:10.316Z,15.5
2017-08-20T21:25:03.113Z,15.4
2017-08-20T21:30:02.890Z,15.5
2017-08-20T21:35:05.190Z,15.5
2017-08-20T21:40:04.967Z,15.6
2017-08-20T21:45:05.335Z,15.5
2017-08-20T21:50:05.648Z,15.5
2017-08-20T21:55:07.532Z,15.5
2017-08-20T22:00:02.371Z,15.5
2017-08-20T22:05:03.157Z,15.5
2017-08-20T22:10:04.903Z,15.4
2017-08-20T22:15:05.226Z,15.3
2017-08-20T22:20:08.127Z,15.3
2017-08-20T22:25:18.109Z,15.3
2017-08-20T22:30:02.913Z,15.3
2017-08-20T22:35:02.723Z,15.3
2017-08-20T22:40:10.561Z,15.2
2017-08-20T22:45:02.374Z,15.2
2017-08-20T22:50:10.760Z,15.1
2017-08-20T22:55:02.549Z,15.1
2017-08-20T23:00:05.857Z,15
2017-08-20T23:05:05.147Z,15
2017-08-20T23:10:04.908Z,15
2017-08-20T23:15:05.226Z,14.9
2017-08-20T23:20:05.569Z,14.9
2017-08-20T23:25:08.414Z,14.9
2017-08-20T23:30:03.169Z,14.9
2017-08-20T23:35:08.019Z,14.7
2017-08-20T23:40:03.291Z,14.7
2017-08-20T23:45:08.169Z,14.6
2017-08-20T23:50:05.465Z,14.6
2017-08-20T23:55:05.780Z,14.6
